Time;durP1;ratioP1;P1;durP2;ratioP2;P2;SDS_P1;SDS_P2;PMS_P1;PMS_P2;Temp;Humidity;BMP_temperature;BMP_pressure;BME280_temperature;BME280_humidity;BME280_pressure;Samples;Min_cycle;Max_cycle;Signal;HPM_P1;HPM_P2
2023/12/23 00:01:15;;;;;;;1.40;0.45;;;11.70;99.90;;;;;;5012961;28;20484;-45
2023/12/23 00:03:41;;;;;;;0.90;0.50;;;11.70;99.90;;;;;;5012853;28;20026;-45
2023/12/23 00:06:07;;;;;;;1.73;0.60;;;11.70;99.90;;;;;;5012676;28;20069;-44
2023/12/23 00:08:32;;;;;;;1.45;0.80;;;11.70;99.90;;;;;;5012924;28;20026;-44
2023/12/23 00:10:58;;;;;;;0.85;0.47;;;11.70;99.90;;;;;;5012895;28;20472;-45
2023/12/23 00:13:24;;;;;;;2.58;0.60;;;11.70;99.90;;;;;;5012953;28;20022;-45
2023/12/23 00:15:49;;;;;;;1.90;0.73;;;11.70;99.90;;;;;;5012904;28;20129;-44
2023/12/23 00:18:15;;;;;;;2.03;0.60;;;11.70;99.90;;;;;;5012839;28;20120;-45
2023/12/23 00:20:41;;;;;;;2.15;0.60;;;11.70;99.90;;;;;;5012482;28;20105;-45
2023/12/23 00:23:06;;;;;;;2.08;0.60;;;11.70;99.90;;;;;;5012691;28;20034;-45
2023/12/23 00:25:35;;;;;;;1.40;0.70;;;11.70;99.90;;;;;;5013526;28;20026;-45
2023/12/23 00:28:03;;;;;;;3.10;0.88;;;11.70;99.90;;;;;;5011359;28;20045;-43
2023/12/23 00:30:28;;;;;;;2.90;0.82;;;11.70;99.90;;;;;;5011826;28;20087;-44
2023/12/23 00:32:54;;;;;;;0.73;0.50;;;11.70;99.90;;;;;;5012571;28;20022;-45
2023/12/23 00:35:20;;;;;;;2.47;0.70;;;11.70;99.90;;;;;;5012521;28;20133;-45
2023/12/23 00:37:46;;;;;;;1.42;0.60;;;11.70;99.90;;;;;;5012363;28;20057;-45
2023/12/23 00:40:11;;;;;;;1.95;0.70;;;11.70;99.90;;;;;;5011127;28;20053;-44
2023/12/23 00:42:37;;;;;;;3.22;0.85;;;11.70;99.90;;;;;;5012218;28;20073;-45
2023/12/23 00:45:04;;;;;;;1.85;0.60;;;11.70;99.90;;;;;;5012026;28;20167;-45
2023/12/23 00:47:30;;;;;;;1.10;0.60;;;11.70;99.90;;;;;;5013101;28;20442;-44
2023/12/23 00:49:55;;;;;;;2.10;0.63;;;11.70;99.90;;;;;;5012107;28;20101;-45
2023/12/23 00:52:21;;;;;;;1.30;0.70;;;11.70;99.90;;;;;;5012094;28;20022;-45
2023/12/23 00:54:47;;;;;;;1.13;0.52;;;11.70;99.90;;;;;;5012232;28;20110;-45
2023/12/23 00:57:12;;;;;;;1.35;0.40;;;11.70;99.90;;;;;;5012056;28;20054;-44
2023/12/23 00:59:38;;;;;;;0.68;0.40;;;11.70;99.90;;;;;;5011792;28;20036;-45
2023/12/23 01:02:04;;;;;;;1.13;0.50;;;11.70;99.90;;;;;;5011968;28;20033;-44
2023/12/23 01:04:30;;;;;;;1.13;0.47;;;11.70;99.90;;;;;;5011931;28;20451;-45
2023/12/23 01:06:55;;;;;;;1.00;0.52;;;11.70;99.90;;;;;;5011878;28;20119;-45
2023/12/23 01:09:21;;;;;;;1.05;0.45;;;11.70;99.90;;;;;;5011771;28;20018;-44
2023/12/23 01:11:46;;;;;;;1.80;0.50;;;11.70;99.90;;;;;;5011748;28;20085;-45
2023/12/23 01:14:12;;;;;;;1.55;0.43;;;11.70;99.90;;;;;;5011642;28;20113;-44
2023/12/23 01:16:38;;;;;;;1.27;0.50;;;11.70;99.90;;;;;;5011829;28;20104;-45
2023/12/23 01:19:03;;;;;;;1.95;0.50;;;11.70;99.90;;;;;;5011656;28;20498;-45
2023/12/23 01:21:29;;;;;;;0.55;0.40;;;11.70;99.90;;;;;;5011687;28;20026;-44
2023/12/23 01:23:55;;;;;;;1.50;0.50;;;11.70;99.90;;;;;;5011653;28;20034;-45
2023/12/23 01:26:20;;;;;;;2.00;0.80;;;11.70;99.90;;;;;;5011468;28;20105;-43
2023/12/23 01:28:46;;;;;;;1.10;0.40;;;11.70;99.90;;;;;;5013059;28;20583;-45
2023/12/23 01:31:11;;;;;;;0.77;0.40;;;11.70;99.90;;;;;;5012302;28;20511;-44
2023/12/23 01:33:37;;;;;;;1.13;0.50;;;11.70;99.90;;;;;;5011459;28;20018;-45
2023/12/23 01:36:05;;;;;;;1.58;0.57;;;11.70;99.90;;;;;;5011655;28;20026;-44
2023/12/23 01:38:32;;;;;;;2.25;0.57;;;11.70;99.90;;;;;;5011499;28;20033;-44
2023/12/23 01:40:58;;;;;;;1.08;0.40;;;11.70;99.90;;;;;;5012090;28;20421;-45
2023/12/23 01:43:24;;;;;;;1.05;0.50;;;11.70;99.90;;;;;;5015439;28;20113;-45
2023/12/23 01:45:53;;;;;;;1.13;0.50;;;11.70;99.90;;;;;;5015615;28;20062;-45
2023/12/23 01:48:22;;;;;;;1.27;0.50;;;11.70;99.90;;;;;;5015363;28;20026;-44
2023/12/23 01:50:49;;;;;;;1.98;0.55;;;11.70;99.90;;;;;;5015936;28;20408;-44
2023/12/23 01:53:14;;;;;;;1.88;0.70;;;11.70;99.90;;;;;;5015579;28;20453;-45
2023/12/23 01:55:40;;;;;;;1.92;0.63;;;11.60;99.90;;;;;;5015377;28;20589;-45
2023/12/23 01:58:06;;;;;;;1.33;0.60;;;11.70;99.90;;;;;;5015186;28;20476;-45
2023/12/23 02:00:32;;;;;;;1.52;0.50;;;11.70;99.90;;;;;;5015264;28;20022;-44
2023/12/23 02:02:59;;;;;;;2.60;0.55;;;11.60;99.90;;;;;;5015450;28;20392;-43
2023/12/23 02:05:25;;;;;;;1.98;0.80;;;11.60;99.90;;;;;;5015192;28;20435;-44
2023/12/23 02:07:51;;;;;;;2.60;0.63;;;11.60;99.90;;;;;;5015078;28;20504;-43
2023/12/23 02:10:17;;;;;;;2.08;0.60;;;11.60;99.90;;;;;;5015157;28;20022;-45
2023/12/23 02:12:56;;;;;;;1.58;0.55;;;11.70;99.90;;;;;;5014929;28;20032;-45
2023/12/23 02:15:23;;;;;;;2.80;0.75;;;11.60;99.90;;;;;;5015560;28;20042;-44
2023/12/23 02:18:00;;;;;;;1.48;0.65;;;11.70;99.90;;;;;;5014743;28;20039;-45
2023/12/23 02:20:26;;;;;;;2.63;0.77;;;11.60;99.90;;;;;;5014910;28;20084;-45
2023/12/23 02:22:53;;;;;;;2.28;0.90;;;11.60;99.90;;;;;;5014741;28;20518;-45
2023/12/23 02:25:20;;;;;;;1.33;0.60;;;11.60;99.90;;;;;;5014808;28;20030;-45
2023/12/23 02:27:59;;;;;;;1.70;0.40;;;11.60;99.90;;;;;;5014718;28;20018;-44
2023/12/23 02:30:26;;;;;;;3.22;0.70;;;11.60;99.90;;;;;;5015004;28;20402;-44
2023/12/23 02:32:53;;;;;;;1.63;0.60;;;11.60;99.90;;;;;;5014796;28;20026;-45
2023/12/23 02:35:23;;;;;;;2.80;0.85;;;11.60;99.90;;;;;;5014661;28;20037;-44
2023/12/23 02:37:49;;;;;;;2.05;0.60;;;11.60;99.90;;;;;;5014477;28;20502;-45
2023/12/23 02:40:14;;;;;;;3.03;0.55;;;11.60;99.90;;;;;;5014795;28;20129;-44
2023/12/23 02:42:40;;;;;;;1.73;0.70;;;11.60;99.90;;;;;;5014469;28;20034;-44
2023/12/23 02:45:06;;;;;;;1.45;0.57;;;11.60;99.90;;;;;;5014397;28;20033;-43
2023/12/23 02:47:32;;;;;;;1.52;0.50;;;11.60;99.90;;;;;;5014219;28;20455;-44
2023/12/23 02:49:57;;;;;;;1.08;0.45;;;11.60;99.90;;;;;;5014640;28;20026;-43
2023/12/23 02:52:23;;;;;;;1.67;0.47;;;11.60;99.90;;;;;;5013472;28;20026;-43
2023/12/23 02:54:49;;;;;;;1.65;0.40;;;11.60;99.90;;;;;;5014380;28;20499;-44
2023/12/23 02:57:14;;;;;;;1.20;0.60;;;11.60;99.90;;;;;;5015852;28;20037;-43
2023/12/23 02:59:40;;;;;;;1.00;0.38;;;11.60;99.90;;;;;;5014193;28;20026;-44
2023/12/23 03:02:05;;;;;;;1.38;0.50;;;11.60;99.90;;;;;;5014054;28;20022;-43
2023/12/23 03:04:32;;;;;;;1.55;0.50;;;11.60;99.90;;;;;;5014031;28;20106;-43
2023/12/23 03:06:58;;;;;;;2.53;0.47;;;11.60;99.90;;;;;;5013969;28;20507;-44
2023/12/23 03:09:25;;;;;;;3.72;0.52;;;11.60;99.90;;;;;;5013939;28;20053;-44
2023/12/23 03:11:50;;;;;;;1.42;0.50;;;11.60;99.90;;;;;;5013932;28;20057;-45
2023/12/23 03:14:16;;;;;;;2.13;0.55;;;11.70;99.90;;;;;;5013884;28;20049;-44
2023/12/23 03:16:41;;;;;;;1.27;0.55;;;11.60;99.90;;;;;;5013646;28;20037;-43
2023/12/23 03:19:09;;;;;;;2.03;0.75;;;11.60;99.90;;;;;;5013776;28;20037;-44
2023/12/23 03:21:41;;;;;;;1.17;0.43;;;11.60;99.90;;;;;;5012458;28;20030;-44
2023/12/23 03:24:07;;;;;;;1.58;0.55;;;11.60;99.90;;;;;;5013779;28;20029;-45
2023/12/23 03:26:32;;;;;;;1.25;0.60;;;11.70;99.90;;;;;;5013667;28;20259;-45
2023/12/23 03:28:58;;;;;;;1.90;0.63;;;11.70;99.90;;;;;;5013139;28;20105;-45
2023/12/23 03:31:23;;;;;;;1.90;0.65;;;11.70;99.90;;;;;;5013507;28;20033;-44
2023/12/23 03:33:49;;;;;;;2.45;0.70;;;11.70;99.90;;;;;;5013621;28;20096;-44
2023/12/23 03:36:16;;;;;;;1.83;0.70;;;11.80;99.90;;;;;;5013499;28;20515;-45
2023/12/23 03:38:42;;;;;;;1.52;0.50;;;11.80;99.90;;;;;;5013350;28;20053;-45
2023/12/23 03:41:10;;;;;;;0.65;0.47;;;11.80;99.90;;;;;;5013305;28;20072;-45
2023/12/23 03:43:35;;;;;;;0.85;0.35;;;11.90;99.90;;;;;;5013397;28;20029;-45
2023/12/23 03:46:01;;;;;;;1.10;0.63;;;11.90;99.90;;;;;;5013073;28;20106;-45
2023/12/23 03:48:27;;;;;;;1.50;0.50;;;11.90;99.90;;;;;;5013306;28;20018;-45
2023/12/23 03:50:52;;;;;;;1.30;0.40;;;11.90;99.90;;;;;;5013255;28;20387;-45
2023/12/23 03:53:18;;;;;;;3.20;0.80;;;11.90;99.90;;;;;;5013195;28;20045;-45
2023/12/23 03:55:44;;;;;;;1.40;0.60;;;12.00;99.90;;;;;;5013089;28;20030;-45
2023/12/23 03:58:09;;;;;;;1.30;0.55;;;12.00;99.90;;;;;;5013047;28;20029;-45
2023/12/23 04:00:35;;;;;;;1.27;0.57;;;12.00;99.90;;;;;;5013011;28;20068;-45
2023/12/23 04:03:01;;;;;;;1.02;0.32;;;12.00;99.90;;;;;;5013087;28;20105;-45
2023/12/23 04:05:26;;;;;;;0.82;0.45;;;12.00;99.90;;;;;;5012789;28;20029;-45
2023/12/23 04:07:52;;;;;;;0.65;0.40;;;12.00;99.90;;;;;;5012706;28;20026;-45
2023/12/23 04:10:18;;;;;;;1.00;0.45;;;12.00;99.90;;;;;;5012900;28;20042;-45
2023/12/23 04:12:44;;;;;;;1.58;0.50;;;12.00;99.90;;;;;;5012806;28;20392;-45
2023/12/23 04:15:10;;;;;;;1.30;0.47;;;12.00;99.90;;;;;;5012732;28;20038;-45
2023/12/23 04:17:36;;;;;;;1.10;0.50;;;12.10;99.90;;;;;;5012856;28;20033;-45
2023/12/23 04:20:02;;;;;;;1.90;0.30;;;12.10;99.90;;;;;;5012711;28;20554;-45
2023/12/23 04:22:28;;;;;;;1.55;0.50;;;12.00;99.90;;;;;;5012399;28;20124;-44
2023/12/23 04:24:53;;;;;;;1.35;0.60;;;12.00;99.90;;;;;;5012626;28;20366;-45
2023/12/23 04:27:19;;;;;;;1.33;0.57;;;12.10;99.90;;;;;;5012728;28;20504;-45
2023/12/23 04:29:45;;;;;;;1.42;0.40;;;12.00;99.90;;;;;;5012431;28;20066;-44
2023/12/23 04:32:10;;;;;;;2.30;0.50;;;12.00;99.90;;;;;;5011160;28;20379;-44
2023/12/23 04:34:39;;;;;;;0.90;0.50;;;12.00;99.90;;;;;;5012443;28;20042;-45
2023/12/23 04:37:05;;;;;;;2.30;0.50;;;12.00;99.90;;;;;;5012264;28;20472;-44
2023/12/23 04:39:30;;;;;;;1.35;0.60;;;12.10;99.90;;;;;;5012283;28;20032;-45
2023/12/23 04:41:56;;;;;;;1.67;0.50;;;12.00;99.90;;;;;;5012410;28;20366;-43
2023/12/23 04:44:22;;;;;;;1.40;0.55;;;12.00;99.90;;;;;;5012304;28;20377;-43
2023/12/23 04:46:50;;;;;;;0.85;0.45;;;12.00;99.90;;;;;;5012308;28;20507;-44
2023/12/23 04:49:16;;;;;;;1.23;0.60;;;12.00;99.90;;;;;;5012438;28;20420;-44
2023/12/23 04:51:44;;;;;;;1.50;0.50;;;12.00;99.90;;;;;;5012878;28;20018;-43
2023/12/23 04:54:13;;;;;;;0.63;0.30;;;12.00;99.90;;;;;;5013606;28;20029;-44
2023/12/23 04:56:40;;;;;;;0.95;0.45;;;12.00;99.90;;;;;;5012023;28;20026;-45
2023/12/23 04:59:06;;;;;;;0.95;0.40;;;12.00;99.90;;;;;;5011957;28;20049;-45
2023/12/23 05:01:32;;;;;;;1.15;0.57;;;12.00;99.90;;;;;;5012039;28;20026;-44
2023/12/23 05:03:57;;;;;;;1.52;0.60;;;12.00;99.90;;;;;;5012077;28;20072;-45
2023/12/23 05:06:23;;;;;;;1.10;0.43;;;12.00;99.90;;;;;;5011681;28;20037;-43
2023/12/23 05:08:49;;;;;;;1.42;0.50;;;12.00;99.90;;;;;;5012038;28;20113;-44
2023/12/23 05:11:14;;;;;;;0.75;0.40;;;12.00;99.90;;;;;;5011900;28;20033;-45
2023/12/23 05:13:40;;;;;;;0.60;0.40;;;12.00;99.90;;;;;;5011810;28;20423;-45
2023/12/23 05:16:06;;;;;;;1.10;0.45;;;12.00;99.90;;;;;;5011114;28;20030;-45
2023/12/23 05:18:31;;;;;;;1.48;0.40;;;11.90;99.90;;;;;;5011674;28;20026;-44
2023/12/23 05:20:57;;;;;;;1.73;0.50;;;11.90;99.90;;;;;;5011554;28;20511;-45
2023/12/23 05:23:23;;;;;;;0.70;0.38;;;11.90;99.90;;;;;;5011579;28;20029;-45
2023/12/23 05:25:50;;;;;;;0.63;0.30;;;11.90;99.90;;;;;;5011677;28;20105;-45
2023/12/23 05:28:16;;;;;;;1.67;0.50;;;11.90;99.90;;;;;;5011516;28;20021;-45
2023/12/23 05:30:42;;;;;;;1.02;0.50;;;11.90;99.90;;;;;;5011511;28;20022;-45
2023/12/23 05:33:07;;;;;;;2.28;0.40;;;11.90;99.90;;;;;;5011607;28;20029;-45
2023/12/23 05:35:33;;;;;;;0.50;0.15;;;11.90;99.90;;;;;;5011437;28;20100;-45
2023/12/23 05:37:58;;;;;;;0.40;0.30;;;11.90;99.90;;;;;;5011356;28;20041;-45
2023/12/23 05:40:24;;;;;;;1.08;0.65;;;11.90;99.90;;;;;;5012125;28;20026;-45
2023/12/23 05:42:50;;;;;;;0.52;0.25;;;11.90;99.90;;;;;;5011565;28;20100;-45
2023/12/23 05:45:16;;;;;;;0.90;0.30;;;11.90;99.90;;;;;;5010556;28;20369;-44
2023/12/23 05:47:43;;;;;;;1.38;0.30;;;11.90;99.90;;;;;;5012744;28;20033;-44
2023/12/23 05:50:10;;;;;;;2.25;0.40;;;11.90;99.90;;;;;;5012037;28;20033;-45
2023/12/23 05:52:36;;;;;;;0.10;0.10;;;11.90;99.90;;;;;;5011404;28;20033;-45
2023/12/23 05:55:01;;;;;;;0.60;0.28;;;11.90;99.90;;;;;;5011395;28;20030;-44
2023/12/23 05:57:27;;;;;;;0.22;0.20;;;11.90;99.90;;;;;;5011226;28;20072;-44
2023/12/23 05:59:53;;;;;;;0.55;0.20;;;11.90;99.90;;;;;;5011270;28;20057;-44
2023/12/23 06:02:18;;;;;;;0.90;0.40;;;11.90;99.90;;;;;;5011216;28;20030;-45
2023/12/23 06:04:44;;;;;;;0.52;0.25;;;11.80;99.90;;;;;;5011192;28;20337;-45
2023/12/23 06:07:10;;;;;;;0.50;0.38;;;11.90;99.90;;;;;;5011244;28;20033;-44
2023/12/23 06:09:36;;;;;;;1.13;0.60;;;11.80;99.90;;;;;;5011168;28;20018;-45
2023/12/23 06:12:02;;;;;;;0.43;0.30;;;11.80;99.90;;;;;;5011193;28;20480;-45
2023/12/23 06:14:28;;;;;;;0.57;0.22;;;11.80;99.90;;;;;;5011214;28;20033;-45
2023/12/23 06:16:53;;;;;;;0.50;0.28;;;11.80;99.90;;;;;;5011236;28;20050;-45
2023/12/23 06:19:19;;;;;;;0.28;0.25;;;11.80;99.90;;;;;;5011022;28;20034;-44
2023/12/23 06:21:46;;;;;;;0.30;0.20;;;11.80;99.90;;;;;;5011207;28;20080;-43
2023/12/23 06:24:13;;;;;;;1.08;0.28;;;11.80;99.90;;;;;;5011147;28;20033;-41
2023/12/23 06:26:38;;;;;;;0.73;0.40;;;11.80;99.90;;;;;;5011269;28;20109;-43
2023/12/23 06:29:04;;;;;;;0.60;0.30;;;11.80;99.90;;;;;;5014877;28;20507;-45
2023/12/23 06:31:30;;;;;;;0.45;0.25;;;11.80;99.90;;;;;;5015051;28;20025;-44
2023/12/23 06:33:55;;;;;;;0.57;0.20;;;11.80;99.90;;;;;;5013349;28;20476;-45
2023/12/23 06:36:21;;;;;;;0.40;0.20;;;11.80;99.90;;;;;;5014618;28;20057;-44
2023/12/23 06:38:46;;;;;;;0.68;0.20;;;11.80;99.90;;;;;;5014521;28;20072;-44
2023/12/23 06:41:12;;;;;;;0.85;0.30;;;11.80;99.90;;;;;;5014502;28;20050;-45
2023/12/23 06:43:38;;;;;;;0.73;0.20;;;11.80;99.90;;;;;;5014879;28;20030;-45
2023/12/23 06:46:04;;;;;;;1.10;0.30;;;11.80;99.90;;;;;;5014303;28;20034;-45
2023/12/23 06:48:29;;;;;;;0.10;0.10;;;11.80;99.90;;;;;;5014273;28;20097;-45
2023/12/23 06:50:55;;;;;;;0.20;0.20;;;11.80;99.90;;;;;;5014346;28;20542;-45
2023/12/23 06:53:22;;;;;;;0.17;0.10;;;11.80;99.90;;;;;;5014397;28;20017;-45
2023/12/23 06:55:47;;;;;;;0.55;0.20;;;11.80;99.90;;;;;;5014234;28;20498;-45
2023/12/23 06:58:13;;;;;;;0.32;0.20;;;11.70;99.90;;;;;;5014128;28;20026;-45
2023/12/23 07:00:39;;;;;;;0.40;0.20;;;11.80;99.90;;;;;;5014126;28;20026;-45
2023/12/23 07:03:07;;;;;;;0.60;0.20;;;11.70;99.90;;;;;;5014157;28;20503;-45
2023/12/23 07:05:33;;;;;;;0.32;0.17;;;11.80;99.90;;;;;;5014062;28;20392;-45
2023/12/23 07:07:58;;;;;;;0.40;0.20;;;11.70;99.90;;;;;;5013971;28;20026;-45
2023/12/23 07:10:24;;;;;;;0.40;0.30;;;11.70;99.90;;;;;;5014391;28;20033;-45
2023/12/23 07:12:50;;;;;;;0.57;0.30;;;11.70;99.90;;;;;;5014472;28;20312;-45
2023/12/23 07:15:15;;;;;;;1.05;0.90;;;11.80;99.90;;;;;;5013930;28;20033;-45
2023/12/23 07:17:41;;;;;;;1.67;1.00;;;11.70;99.90;;;;;;5013645;28;20033;-44
2023/12/23 07:20:11;;;;;;;1.75;1.35;;;11.70;99.90;;;;;;5013969;28;20100;-45
2023/12/23 07:22:36;;;;;;;1.90;1.30;;;11.70;99.90;;;;;;5013648;28;20044;-45
2023/12/23 07:25:03;;;;;;;1.67;1.20;;;11.70;99.90;;;;;;5013657;28;20404;-45
2023/12/23 07:27:29;;;;;;;1.90;1.25;;;11.70;99.90;;;;;;5013510;28;20379;-45
2023/12/23 07:29:54;;;;;;;1.75;1.25;;;11.70;99.90;;;;;;5012235;28;20021;-45
2023/12/23 07:32:20;;;;;;;1.40;1.00;;;11.70;99.90;;;;;;5013581;28;20136;-45
2023/12/23 07:34:45;;;;;;;1.67;1.08;;;11.60;99.90;;;;;;5016927;28;20524;-45
2023/12/23 07:37:11;;;;;;;0.95;0.65;;;11.70;99.90;;;;;;5031517;28;20069;-46
2023/12/23 07:39:37;;;;;;;0.73;0.50;;;11.70;99.90;;;;;;5032586;28;20479;-45
2023/12/23 07:42:02;;;;;;;0.45;0.30;;;11.70;99.90;;;;;;5033161;28;20041;-45
2023/12/23 07:44:28;;;;;;;0.60;0.40;;;11.70;99.90;;;;;;5033072;28;20049;-46
2023/12/23 07:46:54;;;;;;;0.82;0.30;;;11.70;99.90;;;;;;5033052;28;20021;-46
2023/12/23 07:49:19;;;;;;;0.77;0.45;;;11.60;99.90;;;;;;5033084;28;20021;-46
2023/12/23 07:51:46;;;;;;;1.13;0.40;;;11.70;99.90;;;;;;5033082;28;20021;-46
2023/12/23 07:54:11;;;;;;;2.08;0.50;;;11.70;99.90;;;;;;5033414;28;20037;-46
2023/12/23 07:56:37;;;;;;;1.13;0.50;;;11.70;99.90;;;;;;5032970;28;20400;-46
2023/12/23 07:59:02;;;;;;;1.30;0.57;;;11.70;99.90;;;;;;5032766;28;20483;-46
2023/12/23 08:01:28;;;;;;;1.90;0.40;;;11.70;99.90;;;;;;5031426;28;20022;-46
2023/12/23 08:03:55;;;;;;;1.10;0.40;;;11.70;99.90;;;;;;5032768;28;20112;-46
2023/12/23 08:06:22;;;;;;;1.55;0.50;;;11.70;99.90;;;;;;5032655;28;20029;-46
2023/12/23 08:08:48;;;;;;;0.95;0.40;;;11.70;99.90;;;;;;5032635;28;20021;-46
2023/12/23 08:11:14;;;;;;;0.52;0.35;;;11.70;99.90;;;;;;5032536;28;20028;-46
2023/12/23 08:13:40;;;;;;;0.82;0.50;;;11.70;99.90;;;;;;5032500;28;20037;-46
2023/12/23 08:16:07;;;;;;;0.80;0.40;;;11.70;99.90;;;;;;5032487;28;20029;-45
2023/12/23 08:18:33;;;;;;;1.00;0.40;;;11.70;99.90;;;;;;5032610;28;20112;-46
2023/12/23 08:20:58;;;;;;;0.38;0.30;;;11.70;99.90;;;;;;5032433;28;20112;-46
2023/12/23 08:23:24;;;;;;;0.60;0.30;;;11.70;99.90;;;;;;5032788;28;20044;-45
2023/12/23 08:25:50;;;;;;;0.63;0.32;;;11.70;99.90;;;;;;5032233;28;20064;-46
2023/12/23 08:28:16;;;;;;;0.38;0.30;;;11.70;99.90;;;;;;5032140;28;20025;-45
2023/12/23 08:30:41;;;;;;;0.75;0.30;;;11.70;99.90;;;;;;5033074;28;20029;-45
2023/12/23 08:33:07;;;;;;;0.98;0.45;;;11.80;99.90;;;;;;5032368;28;20076;-45
2023/12/23 08:35:33;;;;;;;0.43;0.40;;;11.80;99.90;;;;;;5032362;28;20035;-46
2023/12/23 08:37:59;;;;;;;0.57;0.40;;;11.80;99.90;;;;;;5032008;28;20112;-46
2023/12/23 08:40:25;;;;;;;1.10;0.40;;;11.80;99.90;;;;;;5033660;28;20491;-46
2023/12/23 08:42:51;;;;;;;0.95;0.30;;;11.90;99.90;;;;;;5031894;28;20033;-46
2023/12/23 08:45:17;;;;;;;0.90;0.52;;;11.90;99.90;;;;;;5031949;28;20468;-45
2023/12/23 08:47:43;;;;;;;0.30;0.30;;;11.90;99.90;;;;;;5031898;28;20079;-46
2023/12/23 08:50:09;;;;;;;0.40;0.40;;;12.00;99.90;;;;;;5031647;28;20021;-45
2023/12/23 08:52:35;;;;;;;0.50;0.30;;;12.00;99.90;;;;;;5031424;28;20030;-46
2023/12/23 08:55:01;;;;;;;2.75;0.52;;;12.10;99.90;;;;;;5031860;28;20368;-47
2023/12/23 08:57:27;;;;;;;0.70;0.40;;;12.10;99.90;;;;;;5031557;28;20030;-45
2023/12/23 08:59:53;;;;;;;0.45;0.30;;;12.10;99.90;;;;;;5031752;28;20038;-45
2023/12/23 09:02:19;;;;;;;0.40;0.32;;;12.20;99.90;;;;;;5031717;28;20072;-46
2023/12/23 09:04:44;;;;;;;0.98;0.50;;;12.20;99.90;;;;;;5031561;28;20087;-45
2023/12/23 09:07:10;;;;;;;0.47;0.35;;;12.30;99.90;;;;;;5031665;28;20029;-46
2023/12/23 09:09:35;;;;;;;0.47;0.30;;;12.30;99.90;;;;;;5031481;28;20049;-46
2023/12/23 09:12:01;;;;;;;0.55;0.30;;;12.30;99.90;;;;;;5031391;28;20038;-46
2023/12/23 09:14:27;;;;;;;0.57;0.35;;;12.30;99.90;;;;;;5031777;28;20029;-45
2023/12/23 09:16:53;;;;;;;0.75;0.40;;;12.40;99.90;;;;;;5030128;28;20120;-45
2023/12/23 09:19:18;;;;;;;0.50;0.22;;;12.40;99.90;;;;;;5031453;28;20056;-45
2023/12/23 09:21:44;;;;;;;0.55;0.30;;;12.50;99.90;;;;;;5031509;28;20029;-45
2023/12/23 09:24:09;;;;;;;0.20;0.20;;;12.50;99.90;;;;;;5031544;28;20445;-46
2023/12/23 09:26:35;;;;;;;0.60;0.30;;;12.60;99.90;;;;;;5031786;28;20481;-46
2023/12/23 09:29:01;;;;;;;0.80;0.40;;;12.60;99.90;;;;;;5031346;28;20025;-45
2023/12/23 09:31:27;;;;;;;0.30;0.30;;;12.70;99.90;;;;;;5032341;28;20420;-45
2023/12/23 09:33:52;;;;;;;0.40;0.30;;;12.70;99.90;;;;;;5031536;28;20029;-45
2023/12/23 09:36:18;;;;;;;0.52;0.30;;;12.80;99.90;;;;;;5031204;28;20033;-46
2023/12/23 09:38:43;;;;;;;0.43;0.40;;;12.80;99.90;;;;;;5031086;28;20045;-46
2023/12/23 09:41:09;;;;;;;0.50;0.38;;;12.90;99.90;;;;;;5031161;28;20026;-46
2023/12/23 09:43:35;;;;;;;0.50;0.30;;;12.80;99.90;;;;;;5031380;28;20117;-46
2023/12/23 09:46:03;;;;;;;0.43;0.30;;;12.90;99.90;;;;;;5031745;28;20061;-46
2023/12/23 09:48:29;;;;;;;0.30;0.22;;;13.00;99.90;;;;;;5029748;28;20052;-45
2023/12/23 09:50:54;;;;;;;0.55;0.35;;;13.00;99.90;;;;;;5031315;28;20483;-46
2023/12/23 09:53:21;;;;;;;0.47;0.20;;;13.00;99.90;;;;;;5031114;28;20509;-46
2023/12/23 09:55:47;;;;;;;0.32;0.20;;;13.10;99.90;;;;;;5030994;28;20119;-46
2023/12/23 09:58:13;;;;;;;0.40;0.30;;;13.10;99.90;;;;;;5031296;28;20134;-46
2023/12/23 10:00:41;;;;;;;0.20;0.20;;;13.20;99.90;;;;;;5031860;28;20108;-45
2023/12/23 10:03:07;;;;;;;0.60;0.30;;;13.20;99.90;;;;;;5034133;28;20025;-46
2023/12/23 10:05:40;;;;;;;0.30;0.22;;;13.30;99.90;;;;;;5034999;28;20036;-46
2023/12/23 10:08:06;;;;;;;0.55;0.32;;;13.30;99.90;;;;;;5034855;28;20470;-46
2023/12/23 10:10:32;;;;;;;2.40;0.10;;;13.30;99.90;;;;;;5034748;28;20053;-46
2023/12/23 10:12:58;;;;;;;0.47;0.40;;;13.40;99.90;;;;;;5035152;28;20053;-45
2023/12/23 10:15:24;;;;;;;0.22;0.20;;;13.40;99.90;;;;;;5034838;28;20479;-45
2023/12/23 10:17:49;;;;;;;0.70;0.30;;;13.50;99.90;;;;;;5034674;28;20036;-46
2023/12/23 10:20:15;;;;;;;0.60;0.40;;;13.50;99.90;;;;;;5034867;28;20080;-46
2023/12/23 10:22:45;;;;;;;0.35;0.25;;;13.60;99.90;;;;;;5034887;28;20432;-45
2023/12/23 10:25:12;;;;;;;0.50;0.20;;;13.60;99.90;;;;;;5034479;28;20045;-45
2023/12/23 10:27:41;;;;;;;0.55;0.40;;;13.70;99.90;;;;;;5034469;28;20404;-46
2023/12/23 10:30:11;;;;;;;0.68;0.30;;;13.70;99.90;;;;;;5034572;28;20041;-46
2023/12/23 10:32:39;;;;;;;0.30;0.22;;;13.70;99.90;;;;;;5034531;28;20028;-45
2023/12/23 10:35:12;;;;;;;0.30;0.25;;;13.70;99.90;;;;;;5034495;28;20025;-45
2023/12/23 10:37:40;;;;;;;0.63;0.25;;;13.80;99.90;;;;;;5033946;28;20104;-45
2023/12/23 10:40:23;;;;;;;1.05;0.40;;;13.80;99.90;;;;;;5034437;28;20169;-45
2023/12/23 10:42:50;;;;;;;0.50;0.30;;;13.80;99.90;;;;;;5034516;28;20253;-46
2023/12/23 10:45:17;;;;;;;0.40;0.30;;;13.90;99.90;;;;;;5034282;28;20022;-46
2023/12/23 10:47:45;;;;;;;0.20;0.20;;;13.90;99.90;;;;;;5034254;28;20084;-45
2023/12/23 10:50:12;;;;;;;0.40;0.32;;;13.90;99.90;;;;;;5034107;28;20060;-46
2023/12/23 10:52:37;;;;;;;1.13;0.47;;;14.00;99.90;;;;;;5034043;28;20053;-45
2023/12/23 10:55:04;;;;;;;0.82;0.60;;;14.00;99.90;;;;;;5034087;28;20080;-46
2023/12/23 10:57:32;;;;;;;0.55;0.20;;;14.00;99.90;;;;;;5034076;28;20056;-46
2023/12/23 10:59:58;;;;;;;1.00;0.30;;;14.00;99.90;;;;;;5034035;28;20465;-46
2023/12/23 11:02:34;;;;;;;1.15;0.40;;;14.00;99.90;;;;;;5033992;28;20105;-46
2023/12/23 11:05:04;;;;;;;0.50;0.30;;;14.00;99.90;;;;;;5033912;28;20029;-45
2023/12/23 11:07:40;;;;;;;0.30;0.22;;;14.10;99.90;;;;;;5032467;28;20251;-46
2023/12/23 11:10:08;;;;;;;0.50;0.30;;;14.10;99.90;;;;;;5034845;28;20100;-46
2023/12/23 11:12:33;;;;;;;0.57;0.43;;;14.10;99.90;;;;;;5034999;28;20074;-45
2023/12/23 11:14:59;;;;;;;0.75;0.40;;;14.10;99.90;;;;;;5032739;28;20025;-46
2023/12/23 11:17:29;;;;;;;0.47;0.30;;;14.10;99.90;;;;;;5034097;28;20021;-46
2023/12/23 11:19:56;;;;;;;0.68;0.30;;;14.20;99.90;;;;;;5034140;28;20371;-45
2023/12/23 11:22:24;;;;;;;0.80;0.30;;;14.20;99.90;;;;;;5033424;28;20026;-46
2023/12/23 11:24:50;;;;;;;0.52;0.30;;;14.20;99.90;;;;;;5033854;28;20017;-46
2023/12/23 11:27:36;;;;;;;0.38;0.22;;;14.20;99.90;;;;;;5033511;28;20032;-46
2023/12/23 11:30:05;;;;;;;0.50;0.20;;;14.20;99.90;;;;;;5033420;28;20018;-46
2023/12/23 11:32:51;;;;;;;0.80;0.30;;;14.20;99.90;;;;;;5033400;28;20030;-46
2023/12/23 11:35:17;;;;;;;0.40;0.30;;;14.20;99.90;;;;;;5033092;28;20044;-45
2023/12/23 11:37:55;;;;;;;0.43;0.38;;;14.30;99.90;;;;;;5033258;28;20030;-45
2023/12/23 11:40:21;;;;;;;0.30;0.20;;;14.30;99.90;;;;;;5033354;28;20087;-45
2023/12/23 11:42:48;;;;;;;0.50;0.30;;;14.30;99.90;;;;;;5033217;28;20426;-46
2023/12/23 11:45:15;;;;;;;0.50;0.40;;;14.30;99.90;;;;;;5033144;28;20025;-46
2023/12/23 11:47:41;;;;;;;0.20;0.20;;;14.30;99.90;;;;;;5033069;28;20079;-46
2023/12/23 11:50:08;;;;;;;0.45;0.20;;;14.30;99.90;;;;;;5033192;28;20422;-46
2023/12/23 11:52:35;;;;;;;0.50;0.20;;;14.40;99.90;;;;;;5032895;28;20037;-45
2023/12/23 11:55:01;;;;;;;0.63;0.32;;;14.40;99.90;;;;;;5032959;28;21191;-45
2023/12/23 11:57:28;;;;;;;0.75;0.30;;;14.40;99.90;;;;;;5032993;28;20064;-48
2023/12/23 11:59:55;;;;;;;0.35;0.25;;;14.40;99.90;;;;;;5032943;28;20100;-46
2023/12/23 12:02:21;;;;;;;0.65;0.30;;;14.40;99.90;;;;;;5032823;28;20055;-46
2023/12/23 12:04:46;;;;;;;0.60;0.38;;;14.40;99.90;;;;;;5033341;28;20480;-46
2023/12/23 12:07:12;;;;;;;0.90;0.45;;;14.50;99.90;;;;;;5032624;28;20018;-46
2023/12/23 12:09:38;;;;;;;0.93;0.50;;;14.50;99.90;;;;;;5031635;28;20376;-46
2023/12/23 12:12:04;;;;;;;1.38;0.40;;;14.50;99.90;;;;;;5032661;28;20022;-46
2023/12/23 12:14:30;;;;;;;0.90;0.30;;;14.50;99.90;;;;;;5032609;28;20071;-46
2023/12/23 12:16:56;;;;;;;0.52;0.30;;;14.50;99.90;;;;;;5032611;28;20022;-46
2023/12/23 12:19:22;;;;;;;0.73;0.40;;;14.50;99.90;;;;;;5032434;28;20082;-45
2023/12/23 12:21:48;;;;;;;0.85;0.30;;;14.50;99.90;;;;;;5032305;28;20468;-46
2023/12/23 12:24:13;;;;;;;0.60;0.30;;;14.50;99.90;;;;;;5032334;28;20373;-46
2023/12/23 12:26:41;;;;;;;0.50;0.20;;;14.60;99.90;;;;;;5032178;28;20045;-46
2023/12/23 12:29:07;;;;;;;0.85;0.30;;;14.60;99.90;;;;;;5032386;28;20112;-45
2023/12/23 12:31:33;;;;;;;0.68;0.40;;;14.60;99.90;;;;;;5032246;28;20093;-45
2023/12/23 12:33:58;;;;;;;0.30;0.25;;;14.60;99.90;;;;;;5032304;28;20045;-46
2023/12/23 12:36:25;;;;;;;0.70;0.40;;;14.60;99.90;;;;;;5031966;28;20021;-46
2023/12/23 12:38:51;;;;;;;0.35;0.20;;;14.60;99.90;;;;;;5032136;28;20480;-46
2023/12/23 12:41:16;;;;;;;2.50;0.40;;;14.70;99.90;;;;;;5032095;28;20025;-46
2023/12/23 12:43:43;;;;;;;0.30;0.20;;;14.70;99.90;;;;;;5032103;28;20030;-45